N417JT KMDW-KGTU
Flight info
| Callsign | N417JT |
|---|---|
| Flight time | N/A |
| Altitude | 30000 |
| Route | ACITO ADELL ARLYN STL HRO PRX SSOLO |
| Aircraft | SF50/L-BDGRSWY/LB2U2 |
Departure
| Time | 2026-05-04 18:10 |
|---|---|
| Airport | Chicago Midway International Airport (KMDW) |
Arrival
| Time | N/A |
|---|---|
| Airport | Georgetown Executive Airport at Johnny Gantt Field (KGTU) |
| Time | Latitude | Longitude | Altitude | Speed | Heading |
|---|---|---|---|---|---|
| 2026-05-04 17:59 | 41.78108 | -87.75156 | 623 ft | 0 kts | 358° |
| 2026-05-04 18:05 | 41.78111 | -87.75156 | 640 ft | 1 kts | 49° |
| 2026-05-04 18:05 | 41.78129 | -87.75115 | 628 ft | 7 kts | 50° |
| 2026-05-04 18:05 | 41.78162 | -87.75081 | 623 ft | 4 kts | 345° |
| 2026-05-04 18:05 | 41.78185 | -87.75112 | 623 ft | 5 kts | 312° |
| 2026-05-04 18:06 | 41.78252 | -87.75206 | 623 ft | 9 kts | 313° |
| 2026-05-04 18:06 | 41.78293 | -87.75253 | 623 ft | 5 kts | 24° |
| 2026-05-04 18:06 | 41.78325 | -87.75215 | 627 ft | 7 kts | 44° |
| 2026-05-04 18:07 | 41.78366 | -87.75161 | 625 ft | 9 kts | 44° |
| 2026-05-04 18:07 | 41.78418 | -87.75096 | 630 ft | 11 kts | 44° |
| 2026-05-04 18:07 | 41.78482 | -87.75014 | 624 ft | 14 kts | 43° |
| 2026-05-04 18:07 | 41.78545 | -87.74934 | 623 ft | 11 kts | 44° |
| 2026-05-04 18:08 | 41.78604 | -87.74859 | 623 ft | 12 kts | 42° |
| 2026-05-04 18:08 | 41.78671 | -87.74785 | 632 ft | 13 kts | 3° |
| 2026-05-04 18:08 | 41.78745 | -87.74725 | 623 ft | 13 kts | 43° |
| 2026-05-04 18:08 | 41.78814 | -87.74638 | 625 ft | 14 kts | 44° |
| 2026-05-04 18:09 | 41.78970 | -87.74440 | 627 ft | 16 kts | 44° |
| 2026-05-04 18:09 | 41.79156 | -87.74262 | 623 ft | 17 kts | 315° |
| 2026-05-04 18:10 | 41.79133 | -87.74390 | 628 ft | 31 kts | 223° |
| 2026-05-04 18:10 | 41.78812 | -87.74805 | 639 ft | 94 kts | 224° |
| 2026-05-04 18:10 | 41.78319 | -87.75423 | 1156 ft | 97 kts | 220° |
| 2026-05-04 18:10 | 41.77805 | -87.75997 | 1882 ft | 98 kts | 223° |
| 2026-05-04 18:11 | 41.77194 | -87.76531 | 2340 ft | 127 kts | 188° |